Latest Weather Observations for PORTABLE QFRJ (North Tamborine)

IDQ60801

Issued at 2:02 pm EST Thursday 25 April 2019 (issued every 10 minutes, with the page automatically refreshed every 10 minutes)

About weather observations | Map of weather stations | Latest weather observations for QLD | Other Formats
Station Details ID: 250074 Name: PORTABLE QFRJ (NORTH TAMBORINE) Lat: -27.94 Lon: 153.19 Height: 527.0 m
Data from the previous 72 hours. | See also: Recent months for locations in Queensland
Date/Time
EST
Temp
°C
App
Temp
°C
Dew
Point
°C
Rel
Hum
%
Delta-T
°C
Wind Press
QNH
hPa
Press
MSL
hPa
Rain since
9am
mm
Dir  Spd
km/h
Gust
km/h
Spd
kts
Gust
kts
25/01:40pm 18.5 18.3 15.6 83 1.8 E 11 17 6 9 - - 0.0
25/01:30pm 18.5 17.9 15.6 83 1.8 E 13 17 7 9 - - 0.0
25/01:20pm 18.5 17.9 15.7 84 1.7 E 13 15 7 8 - - 0.0
25/01:10pm 18.6 17.8 16.1 85 1.5 ESE 15 20 8 11 - - 0.0
25/01:00pm 18.9 17.7 16.1 84 1.7 ESE 17 22 9 12 - - 0.0
25/12:50pm 19.5 19.2 16.4 82 1.9 ESE 13 17 7 9 - - 0.0
25/12:40pm 19.9 19.9 16.2 79 2.3 ESE 11 15 6 8 - - 0.0
25/12:30pm 20.9 20.4 15.8 72 3.1 ESE 13 19 7 10 - - 0.0
25/12:20pm 20.5 19.4 15.2 71 3.2 E 15 20 8 11 - - 0.0
25/12:10pm 20.3 19.6 15.3 73 3.0 E 13 17 7 9 - - 0.0
25/12:00pm 21.0 20.6 15.3 70 3.5 E 11 17 6 9 - - 0.0
25/11:50am 21.6 21.0 15.6 68 3.7 ESE 13 17 7 9 - - 0.0
25/11:40am 21.1 20.7 15.1 68 3.6 E 11 15 6 8 - - 0.0
25/11:30am 20.5 19.8 15.5 73 3.0 E 13 17 7 9 - - 0.0
25/11:20am 20.7 20.6 14.9 69 3.5 E 9 13 5 7 - - 0.0
25/11:10am 19.8 19.8 15.1 74 2.8 ESE 9 13 5 7 - - 0.0
25/11:00am 20.2 20.2 15.3 73 3.0 E 9 11 5 6 - - 0.0
25/10:50am 20.0 20.2 15.7 76 2.6 ESE 9 11 5 6 - - 0.0
25/10:40am 19.5 19.6 15.4 77 2.5 ESE 9 11 5 6 - - 0.0
25/10:30am 19.3 19.4 15.4 78 2.4 ESE 9 13 5 7 - - 0.0
25/10:20am 19.4 18.9 15.9 80 2.1 E 13 17 7 9 - - 0.0
25/10:10am 19.7 19.0 15.4 76 2.6 E 13 19 7 10 - - 0.0
25/10:00am 19.8 20.0 15.7 77 2.5 ENE 9 17 5 9 - - 0.0
25/09:50am 19.3 19.9 15.9 81 2.1 E 7 9 4 5 - - 0.0
25/09:40am 19.1 18.9 15.8 81 2.0 ESE 11 13 6 7 - - 0.0
25/09:30am 19.0 19.2 15.8 82 1.9 ESE 9 13 5 7 - - 0.0
25/09:20am 19.0 19.6 15.9 82 1.9 E 7 9 4 5 - - 0.0
25/09:10am 19.0 19.2 15.7 81 2.0 SE 9 13 5 7 - - 0.0
25/09:00am 18.5 18.8 15.9 85 1.6 E 9 13 5 7 - - 0.0
25/08:50am 18.3 18.1 15.7 85 1.6 E 11 15 6 8 - - 0.0
25/08:40am 18.5 18.3 15.6 83 1.8 E 11 13 6 7 - - 0.0
25/08:30am 18.7 19.2 15.6 82 1.9 ESE 7 9 4 5 - - 0.0
25/08:20am 18.5 18.5 15.3 81 1.9 ESE 9 15 5 8 - - 0.0
25/08:10am 18.0 17.8 14.7 81 2.0 ESE 9 11 5 6 - - 0.0
25/08:00am 17.7 17.1 14.6 82 1.8 ESE 11 13 6 7 - - 0.0
25/07:50am 17.7 17.1 14.6 82 1.8 ESE 11 15 6 8 - - 0.0
25/07:40am 17.2 17.3 14.4 83 1.6 E 7 15 4 8 - - 0.0
25/07:30am 16.7 17.0 14.4 86 1.3 E 6 7 3 4 - - 0.0
25/07:20am 16.6 16.8 14.3 86 1.3 E 6 7 3 4 - - 0.0
25/07:10am 16.5 16.5 14.3 87 1.3 E 7 9 4 5 - - 0.0
25/07:00am 16.5 16.1 14.2 86 1.3 ESE 9 11 5 6 - - 0.0
25/06:50am 16.4 16.0 14.2 87 1.3 ESE 9 13 5 7 - - 0.0
25/06:40am 16.4 15.7 14.2 87 1.3 ESE 11 15 6 8 - - 0.0
25/06:30am 16.5 16.5 14.2 86 1.3 ESE 7 9 4 5 - - 0.0
25/06:20am 16.5 15.8 14.2 86 1.3 ESE 11 17 6 9 - - 0.0
25/06:10am 16.5 15.8 14.3 87 1.3 ESE 11 13 6 7 - - 0.0
25/06:00am 16.4 16.1 14.4 88 1.2 ESE 9 13 5 7 - - 0.0
25/05:50am 16.3 16.4 14.5 89 1.1 E 7 11 4 6 - - 0.0
25/05:40am 16.3 16.0 14.5 89 1.1 ESE 9 11 5 6 - - 0.0
25/05:30am 16.3 16.1 14.6 90 1.0 ESE 9 11 5 6 - - 0.0
25/05:20am 16.3 15.7 14.7 90 0.9 ESE 11 13 6 7 - - 0.0
25/05:10am 16.4 16.3 14.9 91 0.9 ESE 9 11 5 6 - - 0.0
25/05:00am 16.4 16.3 14.9 91 0.9 ESE 9 11 5 6 - - 0.0
25/04:50am 16.3 16.5 14.7 90 0.9 ESE 7 11 4 6 - - 0.0
25/04:40am 16.3 16.6 14.6 90 1.0 ESE 6 9 3 5 - - 0.0
25/04:30am 16.4 16.6 14.7 90 1.0 ESE 7 11 4 6 - - 0.0
25/04:20am 16.3 16.5 14.6 90 1.0 ESE 7 9 4 5 - - 0.0
25/04:10am 16.4 16.1 14.3 87 1.2 ESE 9 13 5 7 - - 0.0
25/04:00am 16.5 16.2 14.3 87 1.3 ESE 9 13 5 7 - - 0.0
25/03:50am 16.6 16.2 14.0 84 1.5 ESE 9 13 5 7 - - 0.0
25/03:40am 16.6 16.2 14.0 84 1.5 ESE 9 11 5 6 - - 0.0
25/03:30am 16.5 16.0 13.9 84 1.5 ESE 9 11 5 6 - - 0.0
25/03:20am 16.6 16.1 13.9 84 1.6 ESE 9 11 5 6 - - 0.0
25/03:10am 16.5 16.0 13.9 84 1.5 ESE 9 11 5 6 - - 0.0
25/03:00am 16.7 16.2 13.9 83 1.6 ESE 9 13 5 7 - - 0.0
25/02:50am 16.7 16.2 13.8 83 1.7 ESE 9 13 5 7 - - 0.0
25/02:40am 16.7 16.5 13.7 82 1.7 SE 7 9 4 5 - - 0.0
25/02:30am 16.7 16.6 13.8 83 1.7 ESE 7 9 4 5 - - 0.0
25/02:20am 16.8 16.7 13.8 82 1.7 ESE 7 9 4 5 - - 0.0
25/02:10am 16.8 16.7 13.8 82 1.7 ESE 7 11 4 6 - - 0.0
25/02:00am 16.9 16.8 13.9 82 1.7 ESE 7 9 4 5 - - 0.0
25/01:50am 16.9 16.8 13.9 82 1.7 ESE 7 9 4 5 - - 0.0
25/01:40am 16.9 16.8 13.9 82 1.7 ESE 7 9 4 5 - - 0.0
25/01:30am 16.9 16.8 14.0 83 1.7 ESE 7 11 4 6 - - 0.0
25/01:20am 16.9 16.8 14.0 83 1.7 SE 7 11 4 6 - - 0.0
25/01:10am 16.9 16.5 14.0 83 1.7 SE 9 11 5 6 - - 0.0
25/01:00am 16.9 16.1 14.0 83 1.7 SE 11 13 6 7 - - 0.0
25/12:50am 16.9 16.1 14.0 83 1.7 SE 11 13 6 7 - - 0.0
25/12:40am 16.8 16.4 14.2 85 1.5 ESE 9 13 5 7 - - 0.0
25/12:30am 16.8 16.8 14.2 85 1.5 ESE 7 9 4 5 - - 0.0
25/12:20am 16.9 16.9 14.3 85 1.5 ESE 7 9 4 5 - - 0.0
25/12:10am 17.0 16.7 14.3 84 1.6 ESE 9 11 5 6 - - 0.0
25/12:00am 17.0 16.6 14.2 83 1.6 ESE 9 13 5 7 - - 0.0
 
Date/Time
EST
Temp
°C
App
Temp
°C
Dew
Point
°C
Rel
Hum
%
Delta-T
°C
Wind Press
QNH
hPa
Press
MSL
hPa
Rain since
9am
mm
Dir  Spd
km/h
Gust
km/h
Spd
kts
Gust
kts
24/11:50pm 17.0 16.7 14.3 84 1.6 ESE 9 11 5 6 - - 0.0
24/11:40pm 17.1 17.1 14.1 82 1.8 ESE 7 9 4 5 - - 0.0
24/11:30pm 17.1 16.7 14.0 82 1.8 ESE 9 11 5 6 - - 0.0
24/11:20pm 17.2 16.8 14.0 81 1.9 ESE 9 11 5 6 - - 0.0
24/11:10pm 17.2 16.8 14.0 81 1.9 ESE 9 11 5 6 - - 0.0
24/11:00pm 17.3 16.9 14.0 81 1.9 ESE 9 11 5 6 - - 0.0
24/10:50pm 17.4 16.9 13.8 79 2.1 ESE 9 13 5 7 - - 0.0
24/10:40pm 17.4 16.9 13.8 79 2.1 ESE 9 11 5 6 - - 0.0
24/10:30pm 17.4 17.2 13.7 79 2.2 ESE 7 13 4 7 - - 0.0
24/10:20pm 17.4 16.8 13.6 78 2.2 ESE 9 11 5 6 - - 0.0
24/10:10pm 17.5 16.9 13.6 78 2.3 ESE 9 13 5 7 - - 0.0
24/10:00pm 17.4 16.4 13.3 77 2.4 ESE 11 13 6 7 - - 0.0
24/09:50pm 17.4 16.8 13.6 78 2.2 ESE 9 13 5 7 - - 0.0
24/09:40pm 17.4 16.5 13.6 78 2.2 ESE 11 13 6 7 - - 0.0
24/09:30pm 17.4 16.5 13.7 79 2.2 ESE 11 17 6 9 - - 0.0
24/09:20pm 17.4 16.5 13.7 79 2.2 ESE 11 13 6 7 - - 0.0
24/09:10pm 17.4 16.9 13.9 80 2.0 ESE 9 13 5 7 - - 0.0
24/09:00pm 17.4 16.9 13.9 80 2.0 ESE 9 11 5 6 - - 0.0
24/08:50pm 17.5 17.1 14.0 80 2.0 ESE 9 13 5 7 - - 0.0
24/08:40pm 17.5 16.7 13.9 79 2.1 ESE 11 17 6 9 - - 0.0
24/08:30pm 17.5 16.2 13.8 79 2.2 ESE 13 20 7 11 - - 0.0
24/08:20pm 17.5 16.6 13.7 78 2.2 ESE 11 13 6 7 - - 0.0
24/08:10pm 17.6 16.3 13.8 78 2.2 ESE 13 15 7 8 - - 0.0
24/08:00pm 17.6 16.4 13.9 79 2.2 ESE 13 17 7 9 - - 0.0
24/07:50pm 17.6 16.0 13.9 79 2.2 ESE 15 19 8 10 - - 0.0
24/07:40pm 17.5 16.3 14.0 80 2.0 ESE 13 19 7 10 - - 0.0
24/07:30pm 17.5 16.3 14.0 80 2.0 ESE 13 17 7 9 - - 0.0
24/07:20pm 17.5 16.7 14.0 80 2.0 ESE 11 19 6 10 - - 0.0
24/07:10pm 17.4 16.5 13.8 79 2.1 ESE 11 19 6 10 - - 0.0
24/07:00pm 17.4 16.1 13.7 79 2.2 ESE 13 19 7 10 - - 0.0
24/06:50pm 17.3 16.4 13.7 79 2.1 ESE 11 19 6 10 - - 0.0
24/06:40pm 17.4 16.1 13.6 78 2.2 ESE 13 15 7 8 - - 0.0
24/06:30pm 17.3 16.8 13.7 79 2.1 ESE 9 13 5 7 - - 0.0
24/06:20pm 17.4 16.1 13.7 79 2.2 ESE 13 20 7 11 - - 0.0
24/06:10pm 17.3 16.4 13.8 80 2.0 ESE 11 19 6 10 - - 0.0
24/06:00pm 17.3 16.5 14.1 81 1.9 ESE 11 17 6 9 - - 0.0
24/05:50pm 17.2 16.8 14.2 82 1.8 ESE 9 13 5 7 - - 0.0
24/05:40pm 17.3 16.9 14.1 81 1.9 ESE 9 11 5 6 - - 0.0
24/05:30pm 17.3 16.6 14.2 82 1.8 ESE 11 15 6 8 - - 0.0
24/05:20pm 17.5 16.8 14.2 81 1.9 ESE 11 15 6 8 - - 0.0
24/05:10pm 17.7 17.0 14.2 80 2.1 ESE 11 15 6 8 - - 0.0
24/05:00pm 17.8 17.1 14.4 80 2.0 ESE 11 15 6 8 - - 0.0
24/04:50pm 18.1 17.0 14.4 79 2.2 ESE 13 19 7 10 - - 0.0
24/04:40pm 18.4 17.7 14.3 77 2.4 ESE 11 19 6 10 - - 0.0
24/04:30pm 18.4 17.3 14.4 77 2.4 ESE 13 17 7 9 - - 0.0
24/04:20pm 18.3 17.6 14.3 77 2.4 ESE 11 15 6 8 - - 0.0
24/04:10pm 18.4 17.8 14.7 79 2.2 ESE 11 17 6 9 - - 0.0
24/04:00pm 18.8 18.2 14.5 76 2.6 ESE 11 17 6 9 - - 0.0
24/03:50pm 18.9 18.2 14.4 75 2.7 E 11 15 6 8 - - 0.0
24/03:40pm 18.6 18.0 14.5 77 2.4 E 11 15 6 8 - - 0.0
24/03:30pm 18.6 17.6 14.5 77 2.4 ESE 13 15 7 8 - - 0.0
24/03:20pm 18.7 17.7 14.5 76 2.5 E 13 17 7 9 - - 0.0
24/03:10pm 18.8 17.5 14.7 77 2.4 ESE 15 17 8 9 - - 0.0
24/03:00pm 19.0 18.4 14.5 75 2.7 ESE 11 15 6 8 - - 0.0
24/02:50pm 19.1 18.0 14.4 74 2.8 E 13 17 7 9 - - 0.0
24/02:40pm 19.5 18.9 14.5 73 3.0 E 11 11 6 6 - - 0.0
24/02:30pm 19.6 18.4 14.1 70 3.3 E 13 17 7 9 - - 0.0
24/02:20pm 19.8 18.6 14.0 69 3.4 E 13 17 7 9 - - 0.0
24/02:10pm 19.6 18.4 14.0 70 3.3 ESE 13 17 7 9 - - 0.0
24/02:00pm 19.3 18.4 13.8 70 3.2 ESE 11 17 6 9 - - 0.0
24/01:50pm 19.2 18.5 14.3 73 2.9 E 11 17 6 9 - - 0.0
24/01:40pm 19.1 18.0 14.3 73 2.8 ESE 13 22 7 12 - - 0.0
24/01:30pm 19.3 18.3 14.5 74 2.9 ESE 13 20 7 11 - - 0.0
24/01:20pm 19.4 18.4 14.6 74 2.9 E 13 17 7 9 - - 0.0
24/01:10pm 19.6 18.6 14.7 73 2.9 ESE 13 17 7 9 - - 0.0
24/01:00pm 20.0 19.1 14.9 72 3.1 E 13 22 7 12 - - 0.0
24/12:50pm 20.0 19.0 14.6 71 3.2 ESE 13 20 7 11 - - 0.0
24/12:40pm 19.7 18.7 14.7 73 3.0 E 13 17 7 9 - - 0.0
24/12:30pm 19.7 18.9 15.1 75 2.8 ESE 13 15 7 8 - - 0.0
24/12:20pm 19.9 20.4 15.5 76 2.7 ESE 7 11 4 6 - - 0.0
24/12:10pm 19.5 18.3 15.0 75 2.7 ESE 15 20 8 11 - - 0.0
24/12:00pm 19.5 19.0 14.9 75 2.8 ESE 11 17 6 9 - - 0.0
24/11:50am 19.5 18.8 14.4 72 3.0 SE 11 15 6 8 - - 0.0
24/11:40am 19.3 18.7 14.6 74 2.8 ESE 11 17 6 9 - - 0.0
24/11:30am 19.5 19.0 15.0 75 2.7 ESE 11 15 6 8 - - 0.0
24/11:20am 19.7 19.0 15.4 76 2.6 ESE 13 17 7 9 - - 0.0
24/11:10am 19.5 18.3 15.0 75 2.7 ESE 15 20 8 11 - - 0.0
24/11:00am 19.4 18.7 15.3 77 2.5 ESE 13 17 7 9 - - 0.0
24/10:50am 19.4 19.2 15.7 79 2.2 ESE 11 17 6 9 - - 0.0
24/10:40am 19.5 18.7 15.1 76 2.6 ESE 13 17 7 9 - - 0.0
24/10:30am 19.7 19.1 15.7 78 2.4 ESE 13 17 7 9 - - 0.0
24/10:20am 19.1 18.9 15.6 80 2.1 ESE 11 15 6 8 - - 0.0
24/10:10am 18.9 18.6 15.5 80 2.1 E 11 15 6 8 - - 0.0
24/10:00am 18.7 18.1 15.7 83 1.8 E 13 15 7 8 - - 0.0
24/09:50am 18.8 18.1 15.3 80 2.1 ESE 13 20 7 11 - - 0.0
24/09:40am 18.3 18.2 16.0 86 1.4 ESE 11 15 6 8 - - 0.0
24/09:30am 18.3 17.8 16.0 86 1.4 ESE 13 17 7 9 - - 0.0
24/09:20am 18.1 18.4 16.1 88 1.2 ESE 9 15 5 8 - - 0.0
24/09:10am 18.0 17.9 15.9 87 1.3 ESE 11 13 6 7 - - 0.0
24/09:00am 17.9 18.6 16.1 89 1.1 ESE 7 13 4 7 - - 1.0
24/08:50am 17.6 17.9 16.0 90 1.0 SE 9 11 5 6 - - 1.0
24/08:40am 17.4 17.6 15.8 90 1.0 ESE 9 15 5 8 - - 1.0
24/08:30am 17.0 16.8 15.7 92 0.8 ESE 11 15 6 8 - - 1.0
24/08:20am 16.8 17.4 15.8 94 0.6 E 7 9 4 5 - - 1.0
24/08:10am 16.5 17.1 15.4 93 0.7 E 6 11 3 6 - - 1.0
24/08:00am 16.4 16.2 14.8 90 0.9 SE 9 19 5 10 - - 1.0
24/07:50am 17.0 16.5 15.0 88 1.2 SE 11 15 6 8 - - 0.2
24/07:40am 17.3 17.2 15.0 86 1.4 SE 9 11 5 6 - - 0.2
24/07:30am 17.4 17.7 15.1 86 1.4 ESE 7 11 4 6 - - 0.2
24/07:20am 17.4 17.7 14.9 85 1.5 ESE 7 11 4 6 - - 0.2
24/07:10am 17.4 17.7 15.0 86 1.4 SE 7 11 4 6 - - 0.2
24/07:00am 17.2 17.5 14.9 86 1.4 SE 7 11 4 6 - - 0.2
24/06:50am 17.1 17.6 14.9 87 1.3 SE 6 9 3 5 - - 0.2
24/06:40am 17.1 16.9 14.8 86 1.4 SE 9 13 5 7 - - 0.2
24/06:30am 17.0 17.2 14.8 87 1.3 SE 7 11 4 6 - - 0.2
24/06:20am 17.0 17.2 14.8 87 1.3 SE 7 9 4 5 - - 0.2
24/06:10am 16.9 17.4 14.9 88 1.2 SE 6 11 3 6 - - 0.2
24/06:00am 17.0 17.2 14.8 87 1.3 SE 7 11 4 6 - - 0.2
24/05:50am 16.9 17.1 14.7 87 1.3 SE 7 11 4 6 - - 0.2
24/05:40am 16.7 17.1 14.7 88 1.2 ESE 6 9 3 5 - - 0.2
24/05:30am 16.6 17.7 14.7 88 1.1 SE 2 6 1 3 - - 0.2
24/05:20am 16.6 17.3 14.6 88 1.2 SE 4 7 2 4 - - 0.2
24/05:10am 16.5 17.2 14.6 88 1.1 ESE 4 7 2 4 - - 0.2
24/05:00am 16.6 17.3 14.6 88 1.2 ESE 4 6 2 3 - - 0.2
24/04:50am 16.7 17.4 14.5 87 1.3 ESE 4 6 2 3 - - 0.2
24/04:40am 16.8 17.1 14.6 87 1.3 SE 6 9 3 5 - - 0.2
24/04:30am 17.0 16.8 14.7 86 1.4 SE 9 15 5 8 - - 0.2
24/04:20am 17.0 16.8 14.7 86 1.4 SE 9 13 5 7 - - 0.2
24/04:10am 17.0 16.8 14.7 86 1.4 SE 9 13 5 7 - - 0.2
24/04:00am 16.9 16.6 14.5 86 1.4 SE 9 13 5 7 - - 0.2
24/03:50am 16.8 17.1 14.5 86 1.4 SE 6 9 3 5 - - 0.2
24/03:40am 16.8 17.1 14.5 86 1.4 SE 6 9 3 5 - - 0.2
24/03:30am 16.7 16.4 14.5 87 1.3 SE 9 15 5 8 - - 0.2
24/03:20am 16.6 16.7 14.5 87 1.2 ESE 7 13 4 7 - - 0.2
24/03:10am 16.7 17.0 14.4 86 1.3 SE 6 11 3 6 - - 0.2
24/03:00am 16.7 16.0 14.4 86 1.3 SE 11 17 6 9 - - 0.2
24/02:50am 16.7 16.3 14.2 85 1.5 SE 9 15 5 8 - - 0.2
24/02:40am 16.7 16.3 14.1 85 1.5 SE 9 15 5 8 - - 0.2
24/02:30am 16.7 16.3 14.1 85 1.5 ESE 9 15 5 8 - - 0.2
24/02:20am 16.7 16.3 14.0 84 1.6 SE 9 15 5 8 - - 0.2
24/02:10am 16.7 15.9 13.9 83 1.6 SE 11 15 6 8 - - 0.2
24/02:00am 16.6 16.1 13.9 84 1.6 SE 9 17 5 9 - - 0.2
24/01:50am 16.5 16.4 14.0 85 1.5 SE 7 17 4 9 - - 0.2
24/01:40am 16.6 16.6 14.1 85 1.5 ESE 7 13 4 7 - - 0.2
24/01:30am 16.6 16.2 14.1 85 1.5 ESE 9 13 5 7 - - 0.2
24/01:20am 16.6 16.6 14.1 85 1.5 ESE 7 15 4 8 - - 0.2
24/01:10am 16.6 15.8 14.0 84 1.5 ESE 11 17 6 9 - - 0.2
24/01:00am 16.6 15.8 14.1 85 1.5 ESE 11 17 6 9 - - 0.2
24/12:50am 16.6 16.2 14.2 86 1.4 ESE 9 13 5 7 - - 0.2
24/12:40am 16.6 16.3 14.3 86 1.3 ESE 9 11 5 6 - - 0.2
24/12:30am 16.6 16.3 14.3 86 1.3 ESE 9 13 5 7 - - 0.2
24/12:20am 16.6 15.9 14.4 87 1.3 ESE 11 19 6 10 - - 0.2
24/12:10am 16.7 15.7 14.5 87 1.3 ESE 13 20 7 11 - - 0.2
24/12:00am 16.8 15.8 14.5 86 1.4 ESE 13 17 7 9 - - 0.2
 
Date/Time
EST
Temp
°C
App
Temp
°C
Dew
Point
°C
Rel
Hum
%
Delta-T
°C
Wind Press
QNH
hPa
Press
MSL
hPa
Rain since
9am
mm
Dir  Spd
km/h
Gust
km/h
Spd
kts
Gust
kts
23/11:50pm 16.7 15.7 14.5 87 1.3 ESE 13 17 7 9 - - 0.2
23/11:40pm 16.8 15.9 14.8 88 1.2 ESE 13 19 7 10 - - 0.2
23/11:30pm 16.9 15.7 15.0 88 1.1 SE 15 20 8 11 - - 0.2
23/11:20pm 17.0 15.8 15.1 88 1.1 SE 15 22 8 12 - - 0.2
23/11:10pm 17.0 16.6 15.3 90 1.0 SE 11 17 6 9 - - 0.2
23/11:00pm 17.0 16.6 15.3 90 1.0 SE 11 17 6 9 - - 0.2
23/10:50pm 16.9 17.4 15.5 91 0.8 SE 7 13 4 7 - - 0.2
23/10:40pm 16.9 17.1 15.7 93 0.7 ESE 9 13 5 7 - - 0.2
23/10:30pm 16.9 17.1 15.8 93 0.7 ESE 9 13 5 7 - - 0.2
23/10:20pm 16.9 16.8 15.9 94 0.6 ESE 11 15 6 8 - - 0.2
23/10:10pm 16.8 17.1 15.9 94 0.5 ESE 9 11 5 6 - - 0.2
23/10:00pm 16.8 16.3 16.0 95 0.5 ESE 13 15 7 8 - - 0.2
23/09:50pm 16.8 16.8 16.2 96 0.4 ESE 11 19 6 10 - - 0.2
23/09:40pm 16.8 16.8 16.2 96 0.4 ESE 11 17 6 9 - - 0.2
23/09:30pm 16.8 16.8 16.2 96 0.4 ESE 11 17 6 9 - - 0.2
23/09:20pm 16.8 16.8 16.2 96 0.4 E 11 15 6 8 - - 0.2
23/09:10pm 16.8 16.8 16.2 96 0.4 E 11 17 6 9 - - 0.2
23/09:00pm 16.9 16.8 16.1 95 0.5 ESE 11 17 6 9 - - 0.2
23/08:50pm 16.8 17.1 16.0 95 0.5 E 9 15 5 8 - - 0.0
23/08:40pm 16.8 17.1 16.0 95 0.5 E 9 13 5 7 - - 0.0
23/08:30pm 16.8 16.7 16.0 95 0.5 ESE 11 15 6 8 - - 0.0
23/08:20pm 16.9 16.0 15.9 94 0.6 ESE 15 17 8 9 - - 0.0
23/08:10pm 17.3 16.7 15.6 90 1.0 ESE 13 22 7 12 - - 0.0
23/08:00pm 17.5 17.1 15.1 86 1.4 ESE 11 17 6 9 - - 0.0
23/07:50pm 17.5 17.4 15.0 85 1.5 ESE 9 13 5 7 - - 0.0
23/07:40pm 17.6 17.1 14.9 84 1.6 ESE 11 17 6 9 - - 0.0
23/07:30pm 17.6 17.4 14.8 84 1.7 ESE 9 15 5 8 - - 0.0
23/07:20pm 17.7 17.5 14.8 83 1.7 ESE 9 15 5 8 - - 0.0
23/07:10pm 17.6 17.4 14.7 83 1.7 ESE 9 17 5 9 - - 0.0
23/07:00pm 17.5 16.9 14.6 83 1.7 ESE 11 13 6 7 - - 0.0
23/06:50pm 17.5 16.9 14.6 83 1.7 ESE 11 15 6 8 - - 0.0
23/06:40pm 17.5 17.3 14.6 83 1.7 ESE 9 15 5 8 - - 0.0
23/06:30pm 17.6 17.0 14.6 82 1.8 ESE 11 17 6 9 - - 0.0
23/06:20pm 17.6 17.4 14.6 82 1.8 ESE 9 13 5 7 - - 0.0
23/06:10pm 17.7 16.7 14.6 82 1.8 ESE 13 19 7 10 - - 0.0
23/06:00pm 17.7 16.7 14.6 82 1.8 ESE 13 17 7 9 - - 0.0
23/05:50pm 17.8 16.4 14.5 81 1.9 ESE 15 19 8 10 - - 0.0
23/05:40pm 17.7 16.7 14.6 82 1.8 ESE 13 15 7 8 - - 0.0
23/05:30pm 17.8 16.8 14.6 81 1.9 ESE 13 17 7 9 - - 0.0
23/05:20pm 17.9 16.9 14.6 81 2.0 ESE 13 17 7 9 - - 0.0
23/05:10pm 18.0 16.3 14.6 80 2.0 ESE 17 22 9 12 - - 0.0
23/05:00pm 18.0 16.3 14.6 80 2.0 ESE 17 24 9 13 - - 0.0
23/04:50pm 18.1 15.9 14.4 79 2.2 ESE 19 24 10 13 - - 0.0
23/04:40pm 18.2 16.3 14.2 77 2.4 ESE 17 20 9 11 - - 0.0
23/04:30pm 18.3 16.8 14.1 76 2.5 ESE 15 19 8 10 - - 0.0
23/04:20pm 18.4 17.2 14.1 76 2.5 ESE 13 19 7 10 - - 0.0
23/04:10pm 18.6 16.6 14.0 74 2.7 ESE 17 20 9 11 - - 0.0
23/04:00pm 18.7 17.2 14.3 75 2.6 ESE 15 19 8 10 - - 0.0
23/03:50pm 18.8 16.9 14.1 74 2.8 ESE 17 19 9 10 - - 0.0
23/03:40pm 19.0 17.2 14.4 74 2.7 ESE 17 20 9 11 - - 0.0
23/03:30pm 19.1 17.7 14.5 74 2.7 ESE 15 19 8 10 - - 0.0
23/03:20pm 19.2 17.3 14.2 73 3.0 ESE 17 24 9 13 - - 0.0
23/03:10pm 19.3 17.5 14.5 74 2.9 ESE 17 26 9 14 - - 0.0
23/03:00pm 19.4 17.2 14.3 72 3.0 ESE 19 20 10 11 - - 0.0
23/02:50pm 19.8 18.3 15.2 75 2.8 ESE 17 24 9 13 - - 0.0
23/02:40pm 19.9 18.0 15.1 74 2.9 ESE 19 20 10 11 - - 0.0
23/02:30pm 19.9 18.4 15.3 75 2.8 ESE 17 24 9 13 - - 0.0
23/02:20pm 20.2 18.7 15.4 74 2.9 ESE 17 22 9 12 - - 0.0
23/02:10pm 20.2 18.7 15.2 73 3.0 ESE 17 24 9 13 - - 0.0
23/02:00pm 20.0 18.5 15.4 75 2.8 ESE 17 22 9 12 - - 0.0
23/01:50pm 19.9 18.1 15.5 76 2.7 ESE 19 22 10 12 - - 0.0
23/01:40pm 19.6 17.8 15.6 78 2.4 ESE 19 22 10 12 - - 0.0
23/01:30pm 19.5 18.2 15.7 78 2.3 ESE 17 22 9 12 - - 0.0
23/01:20pm 19.4 17.9 15.4 77 2.4 ESE 17 20 9 11 - - 0.0
23/01:10pm 19.9 18.6 15.8 77 2.5 ESE 17 20 9 11 - - 0.0
23/01:00pm 19.7 18.7 15.7 78 2.4 ESE 15 22 8 12 - - 0.0
23/12:50pm 19.6 19.2 16.3 81 2.0 ESE 13 19 7 10 - - 0.0
23/12:40pm 19.3 18.6 16.4 83 1.8 ESE 15 20 8 11 - - 0.0
23/12:30pm 18.7 18.3 16.3 86 1.5 ESE 13 17 7 9 - - 0.0
23/12:20pm 18.6 18.0 16.6 88 1.2 SE 15 22 8 12 - - 0.0
23/12:10pm 19.0 18.4 16.7 86 1.4 SE 15 19 8 10 - - 0.0
23/12:00pm 19.5 18.1 16.5 83 1.8 SE 19 26 10 14 - - 0.0
23/11:50am 19.9 18.2 15.7 77 2.6 SE 19 24 10 13 - - 0.0
23/11:40am 20.1 18.3 15.5 75 2.8 ESE 19 20 10 11 - - 0.0
23/11:30am 20.0 18.9 15.2 74 2.9 ESE 15 22 8 12 - - 0.0
23/11:20am 19.7 18.5 15.0 74 2.8 ESE 15 20 8 11 - - 0.0
23/11:10am 19.4 17.8 15.0 75 2.6 SE 17 24 9 13 - - 0.0
23/11:00am 19.5 17.4 15.3 76 2.5 ESE 20 26 11 14 - - 0.0
23/10:50am 20.2 18.3 15.2 73 3.0 ESE 19 24 10 13 - - 0.0
23/10:40am 19.8 17.6 14.9 73 2.9 ESE 20 28 11 15 - - 0.0
23/10:30am 19.1 17.6 15.4 79 2.2 ESE 17 22 9 12 - - 0.0
23/10:20am 18.9 17.1 15.6 81 2.0 ESE 19 22 10 12 - - 0.0
23/10:10am 19.0 17.2 15.5 80 2.1 ESE 19 26 10 14 - - 0.0
23/10:00am 19.0 16.6 15.4 79 2.2 ESE 22 28 12 15 - - 0.0
23/09:50am 19.3 17.3 15.4 78 2.4 ESE 20 26 11 14 - - 0.0
23/09:40am 19.3 16.9 15.4 78 2.4 ESE 22 26 12 14 - - 0.0
23/09:30am 19.3 17.0 15.7 79 2.2 ESE 22 28 12 15 - - 0.0
23/09:20am 19.1 16.7 15.3 78 2.3 ESE 22 26 12 14 - - 0.0
23/09:10am 19.0 16.9 15.2 78 2.3 ESE 20 26 11 14 - - 0.0
23/09:00am 18.9 16.3 15.0 78 2.3 ESE 22 32 12 17 - - 7.6
23/08:50am 18.7 16.2 15.1 79 2.2 ESE 22 30 12 16 - - 7.6
23/08:40am 18.6 16.0 14.8 78 2.3 ESE 22 26 12 14 - - 7.6
23/08:30am 18.5 16.9 15.1 80 2.0 ESE 17 20 9 11 - - 7.6
23/08:20am 18.5 16.3 14.8 79 2.2 SE 20 26 11 14 - - 7.6
23/08:10am 18.2 16.1 14.6 79 2.1 SE 19 22 10 12 - - 7.6
23/08:00am 17.9 15.6 14.6 81 2.0 SE 20 28 11 15 - - 7.6
23/07:50am 17.9 15.6 14.7 81 1.9 SE 20 26 11 14 - - 7.6
23/07:40am 17.6 15.4 14.8 84 1.7 SE 20 28 11 15 - - 7.6
23/07:30am 17.6 15.4 15.0 85 1.5 SE 20 28 11 15 - - 7.6
23/07:20am 17.7 16.1 15.0 84 1.6 SE 17 24 9 13 - - 7.6
23/07:10am 17.7 16.1 14.9 84 1.7 SE 17 22 9 12 - - 7.6
23/07:00am 17.5 15.8 14.8 84 1.6 SE 17 24 9 13 - - 7.6
23/06:50am 17.5 15.8 14.8 84 1.6 ESE 17 22 9 12 - - 7.6
23/06:40am 17.4 15.8 14.9 85 1.5 SE 17 22 9 12 - - 7.6
23/06:30am 17.3 16.4 14.8 85 1.5 SE 13 19 7 10 - - 7.6
23/06:20am 17.2 16.3 14.8 86 1.4 SE 13 17 7 9 - - 7.6
23/06:10am 17.1 15.8 14.9 87 1.3 SE 15 20 8 11 - - 7.6
23/06:00am 17.1 16.7 15.1 88 1.2 SE 11 17 6 9 - - 7.6
23/05:50am 17.2 16.8 15.2 88 1.2 SE 11 22 6 12 - - 7.6
23/05:40am 17.2 16.4 15.1 87 1.2 SE 13 17 7 9 - - 7.6
23/05:30am 17.2 16.4 15.0 87 1.3 SE 13 19 7 10 - - 7.6
23/05:20am 17.2 16.0 15.1 87 1.2 ESE 15 20 8 11 - - 7.6
23/05:10am 17.0 15.9 15.2 89 1.1 SE 15 20 8 11 - - 7.6
23/05:00am 16.8 16.1 15.5 92 0.8 ESE 13 17 7 9 - - 7.6
23/04:50am 16.8 16.6 15.6 93 0.7 ESE 11 15 6 8 - - 7.6
23/04:40am 16.8 16.6 15.6 93 0.7 ESE 11 17 6 9 - - 7.6
23/04:30am 16.8 16.9 15.5 92 0.8 ESE 9 15 5 8 - - 7.6
23/04:20am 16.8 16.9 15.6 93 0.7 ESE 9 13 5 7 - - 7.6
23/04:10am 16.9 17.1 15.7 93 0.7 ESE 9 13 5 7 - - 7.6
23/04:00am 16.9 16.7 15.7 93 0.7 ESE 11 15 6 8 - - 7.4
23/03:50am 16.9 16.7 15.7 93 0.7 ESE 11 15 6 8 - - 7.4
23/03:40am 16.9 17.1 15.7 93 0.7 ESE 9 13 5 7 - - 7.4
23/03:30am 17.0 16.8 15.7 92 0.8 ESE 11 15 6 8 - - 7.4
23/03:20am 17.1 16.5 15.7 91 0.8 ESE 13 19 7 10 - - 7.4
23/03:10am 17.1 16.6 15.8 92 0.8 ESE 13 19 7 10 - - 7.4
23/03:00am 17.1 16.9 15.8 92 0.8 ESE 11 15 6 8 - - 7.4
23/02:50am 17.2 16.7 15.9 92 0.8 ESE 13 19 7 10 - - 7.4
23/02:40am 17.3 16.1 16.0 92 0.8 ESE 17 20 9 11 - - 7.4
23/02:30am 17.3 16.9 16.1 93 0.7 ESE 13 17 7 9 - - 7.4
23/02:20am 17.4 17.0 16.1 92 0.8 ESE 13 17 7 9 - - 7.4
23/02:10am 17.4 16.9 16.0 91 0.8 SE 13 17 7 9 - - 7.4
23/02:00am 17.4 17.3 16.0 91 0.8 SE 11 17 6 9 - - 7.4
23/01:50am 17.4 16.9 16.0 91 0.8 ESE 13 17 7 9 - - 7.4
23/01:40am 17.3 17.2 16.1 93 0.7 ESE 11 15 6 8 - - 7.4
23/01:30am 17.2 17.6 16.2 94 0.6 ESE 9 13 5 7 - - 7.4
23/01:20am 17.2 17.2 16.2 94 0.6 ESE 11 15 6 8 - - 7.4
23/01:10am 17.1 16.4 16.3 95 0.5 SE 15 24 8 13 - - 7.4
23/01:00am 17.0 17.8 16.4 96 0.4 ESE 7 15 4 8 - - 7.4
23/12:50am 17.0 18.0 16.3 96 0.4 ESE 6 15 3 8 - - 7.4
23/12:40am 17.0 17.7 16.2 95 0.5 E 7 11 4 6 - - 7.4
23/12:30am 17.1 17.5 16.3 95 0.5 ESE 9 13 5 7 - - 7.4
23/12:20am 17.1 17.1 16.3 95 0.5 E 11 17 6 9 - - 7.4
23/12:10am 17.2 18.6 16.3 94 0.5 ESE 4 9 2 5 - - 7.4
23/12:00am 17.2 17.9 16.2 94 0.6 ESE 7 11 4 6 - - 7.4
 
Date/Time
EST
Temp
°C
App
Temp
°C
Dew
Point
°C
Rel
Hum
%
Delta-T
°C
Wind Press
QNH
hPa
Press
MSL
hPa
Rain since
9am
mm
Dir  Spd
km/h
Gust
km/h
Spd
kts
Gust
kts
22/11:50pm 17.2 18.0 16.3 94 0.5 ESE 7 11 4 6 - - 7.4
22/11:40pm 17.3 18.1 16.3 94 0.6 ESE 7 9 4 5 - - 7.2
22/11:30pm 17.2 18.0 16.3 94 0.5 ESE 7 11 4 6 - - 7.2
22/11:20pm 17.2 18.0 16.4 95 0.5 ESE 7 13 4 7 - - 7.2
22/11:10pm 17.3 18.1 16.4 94 0.5 E 7 11 4 6 - - 7.2
22/11:00pm 17.3 17.7 16.4 94 0.5 ESE 9 13 5 7 - - 7.2
22/10:50pm 17.2 17.6 16.3 94 0.5 ESE 9 15 5 8 - - 7.2
22/10:40pm 17.1 17.9 16.3 95 0.5 ESE 7 13 4 7 - - 7.2
22/10:30pm 17.1 17.8 16.2 94 0.5 ESE 7 11 4 6 - - 7.2
22/10:20pm 17.0 17.4 16.2 95 0.5 ESE 9 15 5 8 - - 7.2
22/10:10pm 17.0 17.7 16.2 95 0.5 ESE 7 13 4 7 - - 7.2
22/10:00pm 17.0 17.0 16.3 96 0.4 ESE 11 13 6 7 - - 7.2
22/09:50pm 17.0 17.8 16.4 96 0.4 ESE 7 13 4 7 - - 7.2
22/09:40pm 16.9 17.4 16.5 97 0.2 ESE 9 17 5 9 - - 7.2
22/09:30pm 16.9 17.4 16.5 97 0.2 ESE 9 11 5 6 - - 7.2
22/09:20pm 16.9 17.0 16.5 97 0.2 ESE 11 13 6 7 - - 7.2
22/09:10pm 16.9 17.4 16.5 97 0.2 ESE 9 15 5 8 - - 7.2
22/09:00pm 16.9 17.4 16.5 97 0.2 ESE 9 13 5 7 - - 7.2
22/08:50pm 17.0 17.1 16.5 97 0.3 ESE 11 15 6 8 - - 7.2
22/08:40pm 17.0 17.5 16.6 97 0.2 ESE 9 15 5 8 - - 7.2
22/08:30pm 17.0 16.4 16.6 97 0.2 ESE 15 20 8 11 - - 7.0
22/08:20pm 16.9 16.6 16.5 97 0.2 SE 13 19 7 10 - - 6.2
22/08:10pm 16.9 16.2 16.4 97 0.3 SE 15 20 8 11 - - 5.6
22/08:00pm 16.8 16.1 16.3 97 0.3 SE 15 19 8 10 - - 4.0
22/07:50pm 16.9 15.8 16.3 96 0.4 SE 17 24 9 13 - - 3.8
22/07:40pm 17.0 16.6 16.3 96 0.4 SE 13 19 7 10 - - 3.2
22/07:30pm 17.1 17.5 16.4 96 0.4 SE 9 13 5 7 - - 2.6
22/07:20pm 17.2 17.6 16.3 94 0.5 SE 9 13 5 7 - - 1.0
22/07:10pm 17.1 17.8 16.1 94 0.6 ESE 7 13 4 7 - - 0.6
22/07:00pm 17.1 17.4 15.9 93 0.7 SE 9 15 5 8 - - 0.6
22/06:50pm 17.1 16.7 16.1 94 0.6 SE 13 17 7 9 - - 0.6
22/06:40pm 17.0 17.7 16.2 95 0.5 E 7 15 4 8 - - 0.6
22/06:30pm 16.6 17.3 16.2 97 0.2 ESE 7 13 4 7 - - 0.6
22/06:20pm 16.5 16.8 16.1 97 0.2 E 9 13 5 7 - - 0.6
22/06:10pm 16.5 16.8 16.1 97 0.2 E 9 11 5 6 - - 0.6
22/06:00pm 16.5 17.2 16.1 97 0.2 E 7 13 4 7 - - 0.6
22/05:50pm 16.7 17.7 16.3 97 0.2 E 6 9 3 5 - - 0.6
22/05:40pm 16.8 17.2 16.4 97 0.2 E 9 13 5 7 - - 0.6
22/05:30pm 16.8 16.9 16.4 97 0.2 E 11 20 6 11 - - 0.6
22/05:20pm 16.9 16.2 16.5 97 0.2 E 15 22 8 12 - - 0.6
22/05:10pm 17.2 17.0 16.7 97 0.3 E 13 20 7 11 - - 0.6
22/05:00pm 17.2 16.6 16.7 97 0.3 E 15 17 8 9 - - 0.6
22/04:50pm 17.3 17.9 16.7 96 0.4 E 9 13 5 7 - - 0.6
22/04:40pm 17.3 17.5 16.7 96 0.4 ESE 11 15 6 8 - - 0.6
22/04:30pm 17.5 18.1 16.9 96 0.4 E 9 11 5 6 - - 0.6
22/04:20pm 17.5 17.7 16.8 96 0.4 E 11 15 6 8 - - 0.6
22/04:10pm 17.5 17.3 16.8 96 0.4 E 13 20 7 11 - - 0.6
22/04:00pm 17.8 16.3 16.8 94 0.6 E 20 26 11 14 - - 0.4
22/03:50pm 18.8 19.4 16.7 87 1.3 SE 9 15 5 8 - - 0.4
22/03:40pm 18.8 18.5 16.4 86 1.5 ESE 13 19 7 10 - - 0.4
22/03:30pm 18.7 18.5 16.7 88 1.2 ESE 13 19 7 10 - - 0.4
22/03:20pm 18.5 18.0 17.0 91 0.9 ESE 15 22 8 12 - - 0.4
22/03:10pm 18.6 19.0 17.3 92 0.8 ESE 11 15 6 8 - - 0.4
22/03:00pm 18.4 17.7 17.4 94 0.6 ESE 17 20 9 11 - - 0.4
22/02:50pm 18.3 18.0 17.3 94 0.6 ESE 15 22 8 12 - - 0.4
22/02:40pm 18.2 17.9 17.3 94 0.6 ESE 15 20 8 11 - - 0.4
22/02:30pm 18.2 17.4 17.1 93 0.7 ESE 17 20 9 11 - - 0.4
22/02:20pm 18.9 18.9 17.1 89 1.1 E 13 20 7 11 - - 0.2
22/02:10pm 19.5 19.5 17.1 86 1.5 E 13 19 7 10 - - 0.2

Other formats

Comma delimited format used in spreadsheet applications
http://www.bom.gov.au/fwo/IDQ60801/IDQ60801.99123.axf

JavaScript Object Notation format (JSON) in row-major order
http://www.bom.gov.au/fwo/IDQ60801/IDQ60801.99123.json

Data quality

Most of these data are generated automatically and are frequently updated. Quality checks on data are not normally performed. It is possible for incorrect values to appear. Refer to information at About Latest Weather Observations and please check the disclaimer before using these data.